South Florida, Florida
Current Conditions -  °F | °C
As of 2:53 AM on Friday 31 Oct 2014 (Local Time) from KFLL Reporting Station
Clear Clear  
Wind Chill: 75°   Ceiling: Unl
Heat Index: 75°   Visibility: 10mi
Dew Point: 69°   Wind: 6mph
Humidity: 82%   Direction: 220°SW
Pressure: 29.84"   Gusts: NA
Location:  26.01°N, 80.15°W
Report Text: KFLL 310653Z 22005KT 10SM CLR 24/21 A2984 RMK AO2 SLP104 T02390206
Loading
Personal Weather Stations






























Interactive Weather Map
Tropical Storm Tracking
New forecast layout! Learn more

10-Day Weather Forecast

Advertisements
Track Severe Weather on mobile